»·PEaware :: N5GL KPSP-KIFP

N5GL :: KPSP-KIFP

FLIGHT INFORMATION

Flight Status: Arrived
Operator: Privately registered:
United States
More flights under this callsign
Pilot: Georg L. (13308)
Aircraft: SOCATA TBM-900
(TBM9)
More flights by this aircraft type
Origin: KPSP Palm Springs Intl
United States
Destination: KIFP Laughlin/Bullhead Intl
United States
More flights between these airports :: More routes between these airports
Route: +CATH1 PSP V370 TNP V514 GFS
File this flight plan on PilotEdge
Remarks:
Altitude:
(Current/Filed)
21,000ft
Speed:
(Current/Filed)
304kts
Departed: 13-Apr-20 08:23 AM
Arrived: 13-Apr-20 08:58 AM
Distance/Time
Traveled:
125nm/0:34
Distance/Time
To Go:
Arrived

Flight Plot

Page will automatically refresh every two minutes.

Flight plan parsing failed; only flown route is shown


Map Options




Map Legend


Flown Route
Filed Route
Departure Airport
Arrival Airport
Navaid (VOR, NDB)
Fix

Horizontal Profiles

Position Reports

Time Latitude Longitude Heading Altitude Ground
Speed
13-Apr-20 07:53 33.825687 -116.509544 357 429ft 0kts
13-Apr-20 07:55 33.825687 -116.509544 357 429ft 0kts
13-Apr-20 07:56 33.825687 -116.509544 357 429ft 0kts
13-Apr-20 07:57 33.825687 -116.509544 357 429ft 0kts
13-Apr-20 07:58 33.825687 -116.509544 357 429ft 0kts
13-Apr-20 07:59 33.825687 -116.509544 357 429ft 0kts
13-Apr-20 08:00 33.825687 -116.509544 357 429ft 0kts
13-Apr-20 08:01 33.825687 -116.509544 357 429ft 0kts
13-Apr-20 08:02 33.825687 -116.509544 357 429ft 0kts
13-Apr-20 08:03 33.825687 -116.509544 357 429ft 0kts
13-Apr-20 08:04 33.825687 -116.509544 357 429ft 0kts
13-Apr-20 08:05 33.825687 -116.509544 357 429ft 0kts
13-Apr-20 08:06 33.825687 -116.509544 357 429ft 0kts
13-Apr-20 08:07 33.825687 -116.509544 357 429ft 0kts
13-Apr-20 08:08 33.825687 -116.509544 357 429ft 0kts
13-Apr-20 08:09 33.825687 -116.509544 357 429ft 0kts
13-Apr-20 08:10 33.825687 -116.509544 357 429ft 0kts
13-Apr-20 08:11 33.825687 -116.509544 357 429ft 0kts
13-Apr-20 08:12 33.825687 -116.509544 357 429ft 0kts
13-Apr-20 08:13 33.825688 -116.509544 357 429ft 0kts
13-Apr-20 08:13 33.825688 -116.509544 357 429ft 0kts
13-Apr-20 08:15 33.825488 -116.508909 120 429ft 8kts
13-Apr-20 08:16 33.825365 -116.507610 89 429ft 0kts
13-Apr-20 08:16 33.825298 -116.506511 92 429ft 12kts
13-Apr-20 08:17 33.821493 -116.502388 142 429ft 25kts
13-Apr-20 08:19 33.818530 -116.498948 85 429ft 0kts
13-Apr-20 08:19 33.818530 -116.498948 85 429ft 0kts
13-Apr-20 08:20 33.818530 -116.498948 85 429ft 0kts
13-Apr-20 08:21 33.818841 -116.498225 2 429ft 6kts
13-Apr-20 08:22 33.836174 -116.514117 318 1310ft 119kts
13-Apr-20 08:23 33.863730 -116.540962 319 3537ft 127kts
13-Apr-20 08:24 33.891614 -116.567784 322 5691ft 140kts
13-Apr-20 08:25 33.907226 -116.533492 118 7031ft 208kts
13-Apr-20 08:26 33.880476 -116.459981 112 6989ft 257kts
13-Apr-20 08:27 33.885498 -116.384019 38 6990ft 256kts
13-Apr-20 08:28 33.916115 -116.305200 64 7142ft 254kts
13-Apr-20 08:29 33.940914 -116.237864 62 9381ft 203kts
13-Apr-20 08:30 33.964137 -116.174862 62 11064ft 209kts
13-Apr-20 08:31 33.987977 -116.109949 61 12687ft 215kts
13-Apr-20 08:32 34.012648 -116.042669 60 14177ft 223kts
13-Apr-20 08:33 34.038242 -115.972762 59 15707ft 231kts
13-Apr-20 08:34 34.064593 -115.900638 58 17132ft 240kts
13-Apr-20 08:35 34.091960 -115.825570 57 18521ft 249kts
13-Apr-20 08:36 34.125809 -115.754389 31 19922ft 238kts
13-Apr-20 08:37 34.175307 -115.699124 30 21136ft 256kts
13-Apr-20 08:38 34.231860 -115.635593 32 21132ft 291kts
13-Apr-20 08:39 34.292243 -115.567498 32 21126ft 301kts
13-Apr-20 08:40 34.359497 -115.514755 9 21129ft 282kts
13-Apr-20 08:41 34.433602 -115.482718 9 21124ft 283kts
13-Apr-20 08:42 34.509641 -115.449670 10 20255ft 300kts
13-Apr-20 08:43 34.589484 -115.414809 12 18895ft 308kts
13-Apr-20 08:44 34.669555 -115.379778 12 17532ft 303kts
13-Apr-20 08:45 34.748562 -115.345157 14 16190ft 301kts
13-Apr-20 08:46 34.826901 -115.310753 15 14855ft 296kts
13-Apr-20 08:47 34.891020 -115.251787 51 13356ft 309kts
13-Apr-20 08:48 34.940532 -115.166203 51 11534ft 306kts
13-Apr-20 08:49 34.986870 -115.085712 51 10976ft 272kts
13-Apr-20 08:50 35.028802 -115.011481 51 10985ft 262kts
13-Apr-20 08:51 35.070245 -114.934857 58 9999ft 288kts
13-Apr-20 08:52 35.105765 -114.848603 63 7829ft 278kts
13-Apr-20 08:53 35.134220 -114.762978 68 5621ft 269kts
13-Apr-20 08:54 35.163200 -114.679994 64 3425ft 264kts
13-Apr-20 08:55 35.185465 -114.602108 76 2037ft 209kts
13-Apr-20 08:56 35.174312 -114.560779 176 1170ft 102kts
13-Apr-20 08:57 35.155949 -114.559078 108 704ft 13kts
13-Apr-20 08:58 35.155960 -114.557177 85 704ft 14kts
13-Apr-20 08:59 35.160713 -114.556719 3 704ft 13kts
13-Apr-20 09:00 35.160670 -114.556423 267 704ft 0kts

Navigation Log

Ident Type
Flight plan parsing failed, navigation log unavailable